Time;durP1;ratioP1;P1;durP2;ratioP2;P2;SDS_P1;SDS_P2;PMS_P1;PMS_P2;Temp;Humidity;BMP_temperature;BMP_pressure;BME280_temperature;BME280_humidity;BME280_pressure;Samples;Min_cycle;Max_cycle;Signal;HPM_P1;HPM_P2
2023/07/04 00:05:59;;;;;;;20.80;11.60;;;;;;;18.76;87.43;98727.15;273575;1266;22217;-80
2023/07/04 00:12:03;;;;;;;18.20;11.30;;;;;;;18.81;87.46;98730.52;273562;1266;22348;-82
2023/07/04 00:18:25;;;;;;;22.50;13.90;;;;;;;18.86;88.19;98723.79;273835;1266;22383;-79
2023/07/04 00:24:26;;;;;;;23.40;12.70;;;;;;;18.84;88.42;98723.38;273756;1264;22286;-79
2023/07/04 00:30:28;;;;;;;18.90;12.70;;;;;;;18.78;88.90;98717.67;273642;1266;22330;-79
2023/07/04 00:36:29;;;;;;;21.80;13.10;;;;;;;18.69;89.30;98713.23;273615;1266;22244;-79
2023/07/04 00:42:34;;;;;;;20.20;12.00;;;;;;;18.64;89.71;98717.95;273772;1266;22443;-80
2023/07/04 00:48:39;;;;;;;20.60;12.80;;;;;;;18.58;89.76;98718.02;273712;1266;22362;-80
2023/07/04 00:54:41;;;;;;;21.40;12.00;;;;;;;18.53;89.62;98715.29;273898;1266;22425;-80
2023/07/04 01:00:43;;;;;;;22.50;12.70;;;;;;;18.49;90.05;98713.34;273873;1266;22550;-83
2023/07/04 01:06:48;;;;;;;21.50;12.20;;;;;;;18.45;90.62;98719.21;273796;1267;23137;-80
2023/07/04 01:12:49;;;;;;;17.70;11.90;;;;;;;18.34;91.04;98718.02;273561;1267;22534;-79
2023/07/04 01:19:17;;;;;;;26.30;14.20;;;;;;;18.25;91.37;98718.16;270208;1266;22544;-79
2023/07/04 01:25:25;;;;;;;22.10;12.70;;;;;;;18.10;92.25;98717.42;269831;1266;25316;-78
2023/07/04 01:31:46;;;;;;;20.50;13.10;;;;;;;17.97;92.74;98721.98;270366;1266;22568;-78
2023/07/04 01:37:47;;;;;;;21.80;12.60;;;;;;;17.91;93.28;98727.06;270204;1267;24225;-78
2023/07/04 01:43:52;;;;;;;33.10;12.60;;;;;;;17.89;93.86;98728.44;270071;1266;25335;-78
2023/07/04 01:49:53;;;;;;;17.50;11.20;;;;;;;17.89;94.74;98736.11;270399;1259;23217;-78
2023/07/04 01:55:55;;;;;;;21.50;12.00;;;;;;;17.87;94.75;98728.96;272917;1256;22717;-78
2023/07/04 02:01:55;;;;;;;21.00;12.80;;;;;;;17.81;95.13;98727.67;269910;1266;25346;-79
2023/07/04 02:07:56;;;;;;;19.30;11.90;;;;;;;17.78;95.52;98733.35;271312;1266;22490;-78
2023/07/04 02:14:00;;;;;;;23.90;13.30;;;;;;;17.77;96.04;98731.16;270192;1266;22567;-80
2023/07/04 02:20:02;;;;;;;23.70;13.10;;;;;;;17.75;96.16;98731.60;271627;1266;22540;-79
2023/07/04 02:26:03;;;;;;;18.20;12.60;;;;;;;17.69;96.29;98733.71;273551;1266;23149;-79
2023/07/04 02:32:04;;;;;;;20.40;12.30;;;;;;;17.61;96.66;98732.45;273605;1266;22437;-79
2023/07/04 02:38:05;;;;;;;18.50;12.50;;;;;;;17.59;97.13;98739.23;273734;1266;23669;-80
2023/07/04 02:44:27;;;;;;;21.10;12.20;;;;;;;17.65;97.92;98738.95;273715;1266;22246;-79
2023/07/04 02:50:29;;;;;;;19.10;12.50;;;;;;;17.62;97.84;98738.75;273287;1266;23369;-78
2023/07/04 02:56:31;;;;;;;23.10;13.00;;;;;;;17.54;97.96;98731.56;270665;1266;23910;-78
2023/07/04 03:02:33;;;;;;;22.80;13.80;;;;;;;17.48;97.86;98725.05;269969;1266;22659;-79
2023/07/04 03:08:57;;;;;;;19.40;13.50;;;;;;;17.35;98.23;98722.99;269778;1261;97537;-78
2023/07/04 03:15:01;;;;;;;17.90;12.20;;;;;;;17.26;98.74;98728.33;270168;1265;22614;-79
2023/07/04 03:21:02;;;;;;;19.20;12.30;;;;;;;17.27;99.33;98734.31;270162;1257;22415;-78
2023/07/04 03:27:04;;;;;;;20.20;12.70;;;;;;;17.29;99.72;98747.78;272744;1266;22461;-79
2023/07/04 03:33:27;;;;;;;19.60;12.20;;;;;;;17.30;99.89;98757.73;272111;1256;22553;-79
2023/07/04 03:39:28;;;;;;;17.50;12.50;;;;;;;17.36;99.99;98760.05;270603;1266;23050;-79
2023/07/04 03:45:50;;;;;;;20.30;13.40;;;;;;;17.38;99.97;98761.83;271178;1257;23774;-78
2023/07/04 03:51:51;;;;;;;20.20;12.00;;;;;;;17.39;100.00;98762.12;273681;1266;23532;-80
2023/07/04 03:58:13;;;;;;;22.50;13.30;;;;;;;17.39;100.00;98764.59;273601;1266;23913;-79
2023/07/04 04:04:15;;;;;;;22.40;13.70;;;;;;;17.36;100.00;98767.65;273772;1266;22381;-79
2023/07/04 04:10:17;;;;;;;22.50;12.80;;;;;;;17.43;100.00;98776.47;273825;1266;23451;-79
2023/07/04 04:16:18;;;;;;;22.60;13.50;;;;;;;17.55;100.00;98783.66;273847;1266;23969;-78
2023/07/04 04:22:19;;;;;;;23.00;13.20;;;;;;;17.68;100.00;98787.37;274012;1251;23126;-79
2023/07/04 04:28:20;;;;;;;23.30;13.70;;;;;;;17.79;100.00;98795.19;273931;1266;23210;-79
2023/07/04 04:34:22;;;;;;;23.40;12.70;;;;;;;17.87;100.00;98804.41;273907;1266;22193;-79
2023/07/04 04:41:23;;;;;;;19.90;12.60;;;;;;;17.94;100.00;98805.86;273149;1263;23500;-79
2023/07/04 04:47:24;;;;;;;20.50;12.70;;;;;;;18.03;100.00;98809.07;272270;1263;22213;-79
2023/07/04 04:53:26;;;;;;;20.00;12.10;;;;;;;18.09;100.00;98817.01;272769;1267;22521;-78
2023/07/04 04:59:27;;;;;;;20.00;13.00;;;;;;;18.24;100.00;98819.45;272540;1263;22679;-78
2023/07/04 05:05:37;;;;;;;22.10;13.20;;;;;;;18.39;100.00;98821.89;270974;1270;22398;-79
2023/07/04 05:11:38;;;;;;;19.40;13.20;;;;;;;18.45;100.00;98822.07;273442;1266;23305;-79
2023/07/04 05:17:39;;;;;;;22.80;13.40;;;;;;;18.52;99.94;98832.52;273215;1255;22301;-80
2023/07/04 05:23:42;;;;;;;20.40;13.20;;;;;;;18.63;99.50;98840.02;273541;1256;22246;-79
2023/07/04 05:29:47;;;;;;;24.10;14.30;;;;;;;18.78;99.44;98844.58;273807;1266;22873;-79
2023/07/04 05:35:48;;;;;;;24.30;13.10;;;;;;;18.97;98.79;98846.10;273751;1266;22511;-79
2023/07/04 05:41:49;;;;;;;23.40;13.70;;;;;;;19.20;98.50;98847.09;273268;1260;22247;-78
2023/07/04 05:47:49;;;;;;;21.40;12.00;;;;;;;19.42;97.58;98845.91;273850;1266;22297;-80
2023/07/04 05:53:51;;;;;;;26.80;13.20;;;;;;;19.60;96.73;98849.46;273782;1266;22504;-79
2023/07/04 05:59:53;;;;;;;25.20;13.30;;;;;;;19.76;95.46;98854.48;273584;1266;22074;-79
2023/07/04 06:05:53;;;;;;;19.30;12.70;;;;;;;19.91;94.63;98852.31;273818;1253;23132;-79
2023/07/04 06:12:02;;;;;;;26.50;13.40;;;;;;;20.01;94.44;98853.52;273643;1266;22420;-80
2023/07/04 06:18:39;;;;;;;25.90;14.00;;;;;;;20.18;94.40;98853.27;273821;1266;22398;-79
2023/07/04 06:25:20;;;;;;;21.90;12.30;;;;;;;20.39;93.92;98848.23;273844;1263;22452;-80
2023/07/04 06:31:21;;;;;;;21.90;12.10;;;;;;;20.57;92.41;98853.70;273794;1266;23120;-79
2023/07/04 06:38:02;;;;;;;22.60;11.70;;;;;;;20.75;91.72;98854.84;273908;1253;22383;-79
2023/07/04 06:44:06;;;;;;;25.70;12.90;;;;;;;21.00;91.48;98859.96;273785;1266;23529;-79
2023/07/04 06:50:08;;;;;;;21.30;11.40;;;;;;;21.29;91.06;98866.30;273749;1266;23706;-80
2023/07/04 06:56:21;;;;;;;22.50;11.20;;;;;;;21.65;90.55;98871.06;273671;1266;23234;-80
2023/07/04 07:02:24;;;;;;;21.90;11.80;;;;;;;22.14;89.96;98866.15;273899;1266;23697;-81
2023/07/04 07:08:33;;;;;;;18.30;10.70;;;;;;;22.71;88.07;98871.19;273845;1266;22477;-80
2023/07/04 07:14:35;;;;;;;19.80;11.00;;;;;;;23.46;86.97;98876.08;271951;1266;22572;-79
2023/07/04 07:20:36;;;;;;;15.60;10.10;;;;;;;24.11;84.45;98881.39;271386;1266;22394;-80
2023/07/04 07:26:37;;;;;;;16.40;10.30;;;;;;;24.71;83.22;98885.11;272133;1254;22480;-79
2023/07/04 07:32:38;;;;;;;17.70;10.30;;;;;;;25.16;80.55;98887.96;272561;1263;22469;-81
2023/07/04 07:38:39;;;;;;;16.20;10.60;;;;;;;25.22;77.79;98886.20;273786;1254;23537;-79
2023/07/04 07:44:40;;;;;;;16.70;10.60;;;;;;;25.12;76.39;98885.32;273802;1266;22964;-79
2023/07/04 07:51:01;;;;;;;14.50;8.60;;;;;;;25.23;75.05;98883.48;273834;1256;22415;-80
2023/07/04 07:57:02;;;;;;;15.30;8.40;;;;;;;25.47;72.76;98882.91;272269;1266;22525;-79
2023/07/04 08:03:03;;;;;;;11.70;7.50;;;;;;;25.54;70.57;98879.54;271595;1256;23543;-79
2023/07/04 08:09:27;;;;;;;12.60;7.50;;;;;;;25.50;69.05;98879.20;273397;1259;23154;-80
2023/07/04 08:15:53;;;;;;;13.10;7.20;;;;;;;25.44;67.63;98876.95;269879;1270;22530;-79
2023/07/04 08:21:54;;;;;;;9.30;5.00;;;;;;;25.44;64.98;98877.65;269431;1269;22536;-80
2023/07/04 08:27:55;;;;;;;11.10;6.00;;;;;;;25.43;63.23;98871.05;270135;1259;22586;-79
2023/07/04 08:33:57;;;;;;;11.60;5.60;;;;;;;25.36;62.71;98865.54;270583;1270;22603;-80
2023/07/04 08:39:58;;;;;;;10.20;5.90;;;;;;;25.23;61.04;98866.02;270845;1270;22439;-83
2023/07/04 08:45:59;;;;;;;12.30;6.50;;;;;;;25.20;60.99;98868.44;273511;1266;22418;-79
2023/07/04 08:52:14;;;;;;;11.30;6.60;;;;;;;25.15;60.84;98870.36;273959;1266;22639;-81
2023/07/04 08:58:17;;;;;;;12.60;7.20;;;;;;;25.07;60.57;98866.20;271247;1266;22618;-80
2023/07/04 09:04:52;;;;;;;13.40;7.40;;;;;;;25.10;60.67;98862.42;270382;1266;24612;-81
2023/07/04 09:10:54;;;;;;;;;;;;;;;25.25;59.90;98867.94;271087;1260;22537;-80
2023/07/04 09:16:57;;;;;;;11.70;6.30;;;;;;;25.32;58.65;98874.15;271281;1266;22559;-83
2023/07/04 09:23:21;;;;;;;13.50;6.60;;;;;;;25.46;58.47;98878.34;273839;1257;22387;-79
2023/07/04 09:29:24;;;;;;;10.40;5.60;;;;;;;25.52;58.33;98877.37;273933;1266;23037;-79
2023/07/04 09:35:28;;;;;;;9.60;5.10;;;;;;;25.51;56.96;98876.38;273840;1266;22267;-83
2023/07/04 09:41:31;;;;;;;9.20;5.10;;;;;;;25.53;56.38;98876.46;273925;1266;22329;-80
2023/07/04 09:47:33;;;;;;;8.10;4.70;;;;;;;25.73;56.35;98873.35;273897;1266;22322;-79
2023/07/04 09:53:34;;;;;;;8.90;4.30;;;;;;;25.77;55.13;98874.06;273957;1266;22385;-81
2023/07/04 09:59:35;;;;;;;6.30;4.00;;;;;;;25.88;54.76;98874.79;273789;1266;22377;-81
2023/07/04 10:05:37;;;;;;;7.80;4.40;;;;;;;26.41;54.91;98871.20;273773;1266;22322;-80
2023/07/04 10:11:39;;;;;;;7.40;4.30;;;;;;;26.86;54.16;98872.25;273520;1266;22308;-80
2023/07/04 10:17:54;;;;;;;8.90;4.10;;;;;;;27.30;53.91;98871.04;273344;1266;22415;-80
2023/07/04 10:23:55;;;;;;;8.70;4.40;;;;;;;27.84;52.94;98871.15;273080;1258;24053;-81
2023/07/04 10:29:59;;;;;;;7.70;4.20;;;;;;;28.30;51.60;98868.35;270298;1266;22872;-79
2023/07/04 10:36:00;;;;;;;7.00;4.70;;;;;;;28.59;50.27;98869.40;268375;1260;23909;-80
2023/07/04 10:42:07;;;;;;;6.80;4.20;;;;;;;28.59;49.35;98870.48;269914;1266;22662;-80
2023/07/04 10:48:30;;;;;;;6.40;4.20;;;;;;;28.58;48.98;98873.84;269954;1266;22595;-80
2023/07/04 10:54:31;;;;;;;7.40;4.70;;;;;;;28.68;48.33;98875.52;269730;1258;22532;-80
2023/07/04 11:00:55;;;;;;;9.50;5.40;;;;;;;28.62;47.57;98873.89;271994;1267;22569;-81
2023/07/04 11:07:04;;;;;;;7.00;5.10;;;;;;;28.69;46.78;98870.25;271987;1266;22545;-79
2023/07/04 11:13:06;;;;;;;8.70;6.20;;;;;;;28.90;46.61;98870.20;272466;1264;22414;-79
2023/07/04 11:19:20;;;;;;;12.80;10.30;;;;;;;29.04;45.52;98863.35;273674;1266;22510;-81
2023/07/04 11:25:44;;;;;;;14.30;11.40;;;;;;;28.91;43.72;98861.91;273715;1266;23043;-79
2023/07/04 11:32:36;;;;;;;16.40;10.90;;;;;;;28.91;42.35;98862.83;273719;1266;23364;-79
2023/07/04 11:39:30;;;;;;;;;;;;;;;;;;;;;
2023/07/04 11:45:32;;;;;;;9.80;8.40;;;;;;;29.64;42.59;98856.73;272452;1266;22505;-79
2023/07/04 11:51:34;;;;;;;11.10;9.10;;;;;;;29.66;41.33;98860.21;273049;1251;22389;-80
2023/07/04 11:58:08;;;;;;;12.60;8.20;;;;;;;29.65;41.68;98861.14;273618;1255;23932;-79
2023/07/04 12:04:30;;;;;;;9.20;6.50;;;;;;;29.36;41.59;98864.92;273841;1266;22374;-80
2023/07/04 12:10:48;;;;;;;7.00;5.40;;;;;;;28.84;41.19;98862.73;273957;1266;23932;-79
2023/07/04 12:16:49;;;;;;;6.60;4.90;;;;;;;28.38;41.38;98856.86;273823;1252;23765;-78
2023/07/04 12:23:09;;;;;;;4.00;3.00;;;;;;;28.00;41.28;98856.73;273295;1257;22284;-79
2023/07/04 12:29:10;;;;;;;6.10;4.10;;;;;;;27.66;41.59;98850.14;271667;1266;23147;-79
2023/07/04 12:35:15;;;;;;;5.80;3.20;;;;;;;27.56;42.40;98847.73;273845;1266;22603;-81
2023/07/04 12:41:21;;;;;;;4.50;2.80;;;;;;;27.45;42.55;98840.67;273860;1257;22393;-80
2023/07/04 12:47:25;;;;;;;6.00;3.70;;;;;;;27.33;42.24;98836.19;273878;1256;22786;-78
2023/07/04 12:53:26;;;;;;;5.80;2.60;;;;;;;27.27;42.28;98832.27;274013;1266;23209;-77
2023/07/04 12:59:51;;;;;;;4.90;2.60;;;;;;;27.14;42.45;98836.20;273809;1266;23364;-79
2023/07/04 13:05:53;;;;;;;4.00;2.00;;;;;;;27.07;43.28;98836.16;273928;1266;22452;-80
2023/07/04 13:11:54;;;;;;;5.60;3.00;;;;;;;26.89;43.74;98834.05;273970;1257;23086;-79
2023/07/04 13:18:16;;;;;;;3.00;1.70;;;;;;;26.77;43.59;98833.02;273874;1266;22279;-79
2023/07/04 13:24:36;;;;;;;5.50;2.10;;;;;;;26.75;43.53;98831.05;273896;1266;22123;-77
2023/07/04 13:30:37;;;;;;;4.20;2.00;;;;;;;26.69;43.99;98831.77;273707;1254;22867;-83
2023/07/04 13:36:41;;;;;;;4.10;1.90;;;;;;;26.58;44.35;98826.06;273760;1260;22234;-79
2023/07/04 13:43:05;;;;;;;4.60;1.90;;;;;;;26.47;43.90;98819.14;273946;1256;22391;-78
2023/07/04 13:49:23;;;;;;;5.50;1.90;;;;;;;26.21;44.21;98817.15;273325;1257;22539;-77
2023/07/04 13:55:25;;;;;;;4.00;2.20;;;;;;;25.99;44.94;98813.27;272391;1266;22428;-78
2023/07/04 14:01:26;;;;;;;3.30;1.60;;;;;;;26.08;45.57;98803.99;273962;1266;24033;-79
2023/07/04 14:07:27;;;;;;;4.20;2.20;;;;;;;26.16;45.66;98799.80;273872;1253;23309;-78
2023/07/04 14:13:30;;;;;;;4.50;1.90;;;;;;;26.13;46.03;98797.74;270676;1260;23390;-79
2023/07/04 14:19:31;;;;;;;5.20;2.30;;;;;;;26.08;45.83;98792.71;270675;1266;23792;-79
2023/07/04 14:25:51;;;;;;;4.70;1.60;;;;;;;26.08;46.19;98795.29;270508;1266;22399;-80
2023/07/04 14:32:10;;;;;;;4.40;1.70;;;;;;;26.05;46.58;98792.12;271441;1265;25215;-78
2023/07/04 14:38:38;;;;;;;2.90;1.60;;;;;;;26.09;46.73;98791.12;271597;1266;22773;-79
2023/07/04 14:44:46;;;;;;;5.10;1.30;;;;;;;26.15;45.84;98785.84;272039;1266;22718;-80
2023/07/04 14:51:04;;;;;;;3.10;1.40;;;;;;;26.17;45.19;98783.33;270434;1266;22559;-80
2023/07/04 14:57:26;;;;;;;2.60;1.40;;;;;;;26.15;45.05;98785.45;270665;1266;29511;-78
2023/07/04 15:03:28;;;;;;;3.10;1.60;;;;;;;26.13;44.86;98777.45;271956;1257;22339;-77
2023/07/04 15:09:30;;;;;;;4.10;1.50;;;;;;;26.16;44.54;98779.28;271447;1260;198766;-78
2023/07/04 15:15:31;;;;;;;3.00;1.80;;;;;;;26.21;44.48;98780.45;273727;1266;22436;-79
2023/07/04 15:21:33;;;;;;;3.90;1.70;;;;;;;26.24;44.71;98780.74;273610;1266;22455;-79
2023/07/04 15:27:34;;;;;;;4.20;1.80;;;;;;;26.15;45.56;98778.77;273885;1266;23264;-79
2023/07/04 15:33:35;;;;;;;3.50;1.90;;;;;;;26.06;45.39;98773.35;273879;1266;22461;-80
2023/07/04 15:39:37;;;;;;;5.10;1.70;;;;;;;25.99;46.04;98776.65;272768;1266;22307;-81
2023/07/04 15:45:38;;;;;;;3.40;1.80;;;;;;;25.89;45.96;98772.39;270592;1264;23837;-81
2023/07/04 15:51:39;;;;;;;6.50;2.00;;;;;;;25.83;45.78;98764.10;273825;1257;23136;-80
2023/07/04 15:57:40;;;;;;;3.50;1.70;;;;;;;25.79;45.53;98760.86;273613;1266;22388;-79
2023/07/04 16:03:48;;;;;;;4.90;2.10;;;;;;;25.76;46.26;98760.52;272775;1257;22341;-80
2023/07/04 16:09:48;;;;;;;4.50;2.10;;;;;;;25.70;46.91;98759.90;273965;1266;22444;-84
2023/07/04 16:15:50;;;;;;;2.30;1.50;;;;;;;25.58;46.84;98764.66;274032;1266;22465;-81
2023/07/04 16:21:51;;;;;;;4.00;2.10;;;;;;;25.55;46.84;98769.35;273815;1257;22565;-81
2023/07/04 16:27:52;;;;;;;3.30;1.80;;;;;;;25.54;46.72;98770.33;271951;1257;22981;-80
2023/07/04 16:33:53;;;;;;;6.20;2.00;;;;;;;25.49;46.62;98773.19;271641;1267;22551;-79
2023/07/04 16:39:54;;;;;;;3.20;1.70;;;;;;;25.44;47.10;98781.21;270965;1267;22673;-78
2023/07/04 16:46:16;;;;;;;4.70;2.10;;;;;;;25.28;47.18;98782.48;273341;1254;22543;-79
2023/07/04 16:52:17;;;;;;;4.20;1.90;;;;;;;25.09;47.43;98782.23;272898;1257;24215;-79
2023/07/04 16:58:39;;;;;;;5.00;2.10;;;;;;;24.99;48.32;98784.05;271542;1266;22431;-79
2023/07/04 17:04:40;;;;;;;4.00;2.40;;;;;;;24.89;48.58;98783.02;271177;1267;23341;-77
2023/07/04 17:10:46;;;;;;;3.60;1.90;;;;;;;24.78;48.96;98784.05;271052;1266;23351;-78
2023/07/04 17:16:47;;;;;;;5.20;2.00;;;;;;;24.77;49.45;98782.59;270975;1266;22378;-79
2023/07/04 17:22:48;;;;;;;4.00;2.20;;;;;;;24.78;50.13;98778.70;270514;1266;23832;-79
2023/07/04 17:28:49;;;;;;;3.10;1.90;;;;;;;24.79;50.44;98778.73;270004;1266;22534;-80
2023/07/04 17:34:50;;;;;;;5.10;2.00;;;;;;;24.78;51.00;98780.60;271205;1266;23531;-79
2023/07/04 17:41:11;;;;;;;3.60;1.80;;;;;;;24.77;51.11;98780.98;271624;1266;22531;-79
2023/07/04 17:47:32;;;;;;;4.60;2.50;;;;;;;24.75;50.83;98780.41;263870;1266;10001397;-79
2023/07/04 17:53:35;;;;;;;4.50;1.60;;;;;;;24.70;50.33;98774.77;273046;1267;22526;-79
2023/07/04 17:59:56;;;;;;;4.20;2.20;;;;;;;24.63;50.17;98777.48;273597;1267;22222;-80
2023/07/04 18:06:38;;;;;;;4.90;2.00;;;;;;;24.54;50.44;98778.55;272975;1267;22259;-79
2023/07/04 18:12:39;;;;;;;3.80;2.20;;;;;;;24.44;51.25;98783.20;272412;1266;22239;-79
2023/07/04 18:18:40;;;;;;;4.80;2.50;;;;;;;24.34;52.13;98790.73;273610;1258;22659;-79
2023/07/04 18:24:44;;;;;;;3.50;2.30;;;;;;;24.17;51.88;98803.42;272849;1267;22534;-80
2023/07/04 18:30:46;;;;;;;6.20;2.50;;;;;;;23.98;52.05;98810.54;271477;1266;22353;-80
2023/07/04 18:36:52;;;;;;;5.20;2.90;;;;;;;23.81;52.36;98813.23;273773;1267;22370;-78
2023/07/04 18:43:13;;;;;;;4.30;2.30;;;;;;;23.68;52.90;98815.27;273589;1267;22433;-79
2023/07/04 18:49:14;;;;;;;9.30;2.50;;;;;;;23.45;53.81;98824.80;273743;1266;23313;-79
2023/07/04 18:55:15;;;;;;;10.80;4.20;;;;;;;23.24;54.38;98835.03;273682;1266;22256;-78
2023/07/04 19:01:18;;;;;;;11.40;4.70;;;;;;;22.95;54.99;98842.86;273776;1266;22399;-78
2023/07/04 19:07:20;;;;;;;13.50;4.70;;;;;;;22.65;55.66;98844.11;273636;1267;22490;-79
2023/07/04 19:14:02;;;;;;;10.40;4.80;;;;;;;22.37;56.71;98850.37;273702;1266;22965;-79
2023/07/04 19:20:30;;;;;;;7.20;3.30;;;;;;;22.13;58.13;98859.64;273750;1266;22442;-83
2023/07/04 19:27:14;;;;;;;7.60;3.40;;;;;;;21.94;59.02;98865.61;273712;1266;22490;-78
2023/07/04 19:33:15;;;;;;;11.60;3.50;;;;;;;21.79;60.14;98881.91;272906;1260;22553;-80
2023/07/04 19:39:16;;;;;;;8.80;3.10;;;;;;;21.65;60.95;98889.60;271470;1266;22547;-78
2023/07/04 19:45:17;;;;;;;8.60;3.10;;;;;;;21.58;61.82;98887.81;272432;1266;22893;-78
2023/07/04 19:51:20;;;;;;;7.50;3.50;;;;;;;21.52;62.37;98890.80;273594;1255;22541;-78
2023/07/04 19:57:21;;;;;;;8.40;3.70;;;;;;;21.41;63.10;98891.89;273409;1266;22414;-78
2023/07/04 20:03:42;;;;;;;8.00;4.30;;;;;;;21.32;63.92;98895.64;273737;1260;22378;-79
2023/07/04 20:09:44;;;;;;;8.60;3.60;;;;;;;21.20;65.49;98902.62;273633;1266;23665;-78
2023/07/04 20:15:44;;;;;;;7.70;4.20;;;;;;;21.04;67.03;98905.23;273784;1266;22438;-78
2023/07/04 20:21:46;;;;;;;8.50;4.30;;;;;;;20.90;66.96;98904.80;273697;1266;22199;-78
2023/07/04 20:27:46;;;;;;;9.00;4.80;;;;;;;20.81;67.71;98909.52;273856;1260;22775;-79
2023/07/04 20:33:47;;;;;;;9.40;5.10;;;;;;;20.66;68.13;98912.98;273907;1263;23300;-78
2023/07/04 20:39:48;;;;;;;8.20;4.60;;;;;;;20.54;68.82;98916.73;273829;1260;22299;-78
2023/07/04 20:46:01;;;;;;;7.80;3.50;;;;;;;20.40;69.59;98915.39;272055;1266;22573;-80
2023/07/04 20:52:03;;;;;;;8.70;4.50;;;;;;;20.20;71.91;98914.59;270817;1266;23653;-78
2023/07/04 20:58:13;;;;;;;10.30;5.00;;;;;;;20.02;71.78;98911.52;270717;1254;22559;-78
2023/07/04 21:04:15;;;;;;;9.60;5.10;;;;;;;19.85;72.12;98920.73;270625;1266;23343;-78
2023/07/04 21:10:25;;;;;;;10.00;5.80;;;;;;;19.67;73.44;98927.97;270864;1262;23901;-78
2023/07/04 21:16:41;;;;;;;12.90;7.00;;;;;;;19.46;74.06;98933.67;270789;1254;22480;-81
2023/07/04 21:23:17;;;;;;;17.40;7.50;;;;;;;19.31;74.46;98934.94;273950;1266;22191;-77
2023/07/04 21:29:19;;;;;;;9.90;6.10;;;;;;;19.20;75.25;98934.86;273159;1263;22577;-78
2023/07/04 21:35:28;;;;;;;15.90;6.30;;;;;;;19.08;76.76;98937.70;272089;1266;22500;-78
2023/07/04 21:41:30;;;;;;;14.20;7.90;;;;;;;18.87;77.27;98944.52;273917;1266;22222;-78
2023/07/04 21:47:31;;;;;;;12.50;7.50;;;;;;;18.70;78.21;98947.76;271304;1261;23159;-78
2023/07/04 21:53:32;;;;;;;13.70;8.60;;;;;;;18.62;78.62;98947.63;272972;1256;22547;-78
2023/07/04 21:59:33;;;;;;;18.00;8.10;;;;;;;18.46;79.17;98953.91;270600;1257;23717;-78
2023/07/04 22:05:34;;;;;;;16.50;9.30;;;;;;;18.27;79.87;98955.87;269824;1263;23135;-79
2023/07/04 22:11:35;;;;;;;15.00;8.00;;;;;;;18.06;80.79;98964.58;270117;1266;23411;-77
2023/07/04 22:17:40;;;;;;;13.50;7.50;;;;;;;17.93;81.41;98970.95;273597;1257;22415;-78
2023/07/04 22:23:41;;;;;;;16.20;9.80;;;;;;;17.78;81.80;98972.48;273913;1266;22471;-77
2023/07/04 22:29:43;;;;;;;16.30;9.30;;;;;;;17.71;82.33;98970.23;273886;1254;22423;-78
2023/07/04 22:35:44;;;;;;;16.00;8.60;;;;;;;17.64;83.00;98969.80;273895;1266;22917;-78
2023/07/04 22:42:05;;;;;;;18.30;9.60;;;;;;;17.56;83.62;98964.34;273891;1266;22417;-77
2023/07/04 22:48:06;;;;;;;20.90;10.20;;;;;;;17.46;83.98;98959.20;273904;1266;23406;-78
2023/07/04 22:54:07;;;;;;;15.80;9.10;;;;;;;17.36;84.58;98956.43;273931;1266;23619;-78
2023/07/04 23:00:09;;;;;;;16.20;8.70;;;;;;;17.21;85.20;98957.53;273775;1266;22423;-78
2023/07/04 23:06:36;;;;;;;18.10;9.30;;;;;;;17.07;86.05;98965.02;273924;1253;22501;-78
2023/07/04 23:12:38;;;;;;;;;;;;;;;17.06;87.04;98964.79;273822;1266;23595;-77
2023/07/04 23:18:59;;;;;;;12.90;9.40;;;;;;;17.01;87.42;98966.46;273959;1256;22422;-78
2023/07/04 23:25:00;;;;;;;11.50;8.10;;;;;;;16.91;87.86;98967.00;273765;1266;22301;-78
2023/07/04 23:31:35;;;;;;;18.90;9.60;;;;;;;16.83;88.53;98965.70;272779;1266;22734;-79
2023/07/04 23:37:56;;;;;;;14.40;9.20;;;;;;;16.73;88.85;98965.22;270246;1256;22518;-77
2023/07/04 23:44:37;;;;;;;17.50;10.10;;;;;;;16.60;89.46;98970.06;271702;1266;22466;-77
2023/07/04 23:50:38;;;;;;;16.80;9.10;;;;;;;16.53;89.66;98970.46;273697;1266;22250;-78
2023/07/04 23:56:39;;;;;;;15.30;9.00;;;;;;;16.50;90.68;98969.63;273670;1256;22192;-77
